Portada
METAR-TAF:

METAR-TAF

Aeropuertos :

Aeropuerto de Odense

Odense, Dinamarca

latitud: 55-29N, longitud: 010-20E, altitud: 17 m

Observación

El informe se hizo hace 1 hora y 12 minutos, a las 10:50 UTC
Viento 3 kt del norte-noroeste
Temperatura 16°C
Humedad 88%
Presión 1025 hPa
Visibilidad 10 km o más
sin nubes por debajo de 1500 m y sin presencia de cumulonimbus.

METAR: EKOD 191050Z 33003KT CAVOK 16/14 Q1025

Hora: 14:02 (12:02 UTC)

Pronóstico

El informe se hizo hace 3 horas y 6 minutos, a las 08:56 UTC
Pronóstico válido del 19 a las 09 UTC al 19 a las 15 UTC
Viento 5 kt del noroeste
Visibilidad 10 km o más
Escasas nubes a una altura de 4000 ft
Probabilidad 40%
del 19 a las 09 UTC al 19 a las 11 UTC
Cielo nuboso a una altura de 800 ft

TAF: EKOD 190856Z 1909/1915 32005KT 9999 FEW040 PROB40 1909/1911 BKN008

Observaciones y pronósticos meteorológicos de más de 4000 aeropuertos (mensajes METAR y TAF).

Los puntos amarillos y rojos representan las estaciones disponibles.

Ponga el ratón en el punto deseado para ver el nombre de la estación.

Haga clic para ver las observaciones y los pronósticos meteorológicos.

Para cambiar el mapa : haga clic en los botones verdes con una cruz de color negro para hacer un zoom, en el botón verde con un guión para alejar o en las flechas verdes para mapas adyacentes.


METAR-TAF: